sensor_id;sensor_type;location;lat;lon;timestamp;pressure;altitude;pressure_sealevel;temperature;humidity
38786;BME280;24535;45.508;12.252;2023-11-25T00:02:22;99843.59;;;10.95;60.45
38786;BME280;24535;45.508;12.252;2023-11-25T00:04:48;99856.03;;;10.93;60.34
38786;BME280;24535;45.508;12.252;2023-11-25T00:07:14;99855.44;;;10.89;60.29
38786;BME280;24535;45.508;12.252;2023-11-25T00:09:39;99854.91;;;10.86;60.55
38786;BME280;24535;45.508;12.252;2023-11-25T00:12:05;99851.41;;;10.85;60.49
38786;BME280;24535;45.508;12.252;2023-11-25T00:14:31;99850.06;;;10.91;60.52
38786;BME280;24535;45.508;12.252;2023-11-25T00:16:56;99848.84;;;10.95;60.87
38786;BME280;24535;45.508;12.252;2023-11-25T00:19:22;99857.47;;;10.97;60.96
38786;BME280;24535;45.508;12.252;2023-11-25T00:21:47;99858.44;;;10.96;60.59
38786;BME280;24535;45.508;12.252;2023-11-25T00:24:13;99866.66;;;11.03;60.63
38786;BME280;24535;45.508;12.252;2023-11-25T00:26:38;99875.47;;;11.13;60.65
38786;BME280;24535;45.508;12.252;2023-11-25T00:29:04;99864.00;;;11.14;60.47
38786;BME280;24535;45.508;12.252;2023-11-25T00:31:29;99860.38;;;11.15;60.36
38786;BME280;24535;45.508;12.252;2023-11-25T00:33:55;99869.94;;;11.16;60.40
38786;BME280;24535;45.508;12.252;2023-11-25T00:36:20;99862.75;;;11.18;60.69
38786;BME280;24535;45.508;12.252;2023-11-25T00:38:46;99874.00;;;11.20;60.21
38786;BME280;24535;45.508;12.252;2023-11-25T00:41:12;99867.31;;;11.16;60.74
38786;BME280;24535;45.508;12.252;2023-11-25T00:43:37;99867.44;;;11.14;60.42
38786;BME280;24535;45.508;12.252;2023-11-25T00:46:03;99865.06;;;11.11;60.43
38786;BME280;24535;45.508;12.252;2023-11-25T00:48:29;99859.22;;;11.08;60.43
38786;BME280;24535;45.508;12.252;2023-11-25T00:50:56;99855.16;;;11.04;60.74
38786;BME280;24535;45.508;12.252;2023-11-25T00:53:23;99847.50;;;11.01;60.44
38786;BME280;24535;45.508;12.252;2023-11-25T00:55:48;99842.13;;;11.02;61.10
38786;BME280;24535;45.508;12.252;2023-11-25T00:58:14;99850.03;;;11.02;60.96
38786;BME280;24535;45.508;12.252;2023-11-25T01:00:39;99850.97;;;11.01;60.74
38786;BME280;24535;45.508;12.252;2023-11-25T01:03:05;99850.28;;;10.99;60.65
38786;BME280;24535;45.508;12.252;2023-11-25T01:05:31;99849.81;;;10.94;61.18
38786;BME280;24535;45.508;12.252;2023-11-25T01:07:57;99853.78;;;10.88;61.12
38786;BME280;24535;45.508;12.252;2023-11-25T01:10:23;99856.41;;;10.88;61.24
38786;BME280;24535;45.508;12.252;2023-11-25T01:12:48;99859.28;;;10.85;61.33
38786;BME280;24535;45.508;12.252;2023-11-25T01:15:14;99849.03;;;10.82;61.70
38786;BME280;24535;45.508;12.252;2023-11-25T01:17:40;99862.84;;;10.75;61.22
38786;BME280;24535;45.508;12.252;2023-11-25T01:20:06;99858.41;;;10.75;61.55
38786;BME280;24535;45.508;12.252;2023-11-25T01:22:35;99847.50;;;10.69;61.96
38786;BME280;24535;45.508;12.252;2023-11-25T01:25:00;99852.19;;;10.65;61.92
38786;BME280;24535;45.508;12.252;2023-11-25T01:27:26;99851.34;;;10.64;61.34
38786;BME280;24535;45.508;12.252;2023-11-25T01:29:52;99846.59;;;10.58;61.43
38786;BME280;24535;45.508;12.252;2023-11-25T01:32:17;99855.72;;;10.54;61.75
38786;BME280;24535;45.508;12.252;2023-11-25T01:34:43;99848.44;;;10.47;62.17
38786;BME280;24535;45.508;12.252;2023-11-25T01:37:08;99846.19;;;10.42;62.41
38786;BME280;24535;45.508;12.252;2023-11-25T01:39:36;99833.94;;;10.41;62.19
38786;BME280;24535;45.508;12.252;2023-11-25T01:42:02;99843.53;;;10.42;62.46
38786;BME280;24535;45.508;12.252;2023-11-25T01:44:27;99847.38;;;10.38;62.06
38786;BME280;24535;45.508;12.252;2023-11-25T01:46:53;99844.75;;;10.38;61.78
38786;BME280;24535;45.508;12.252;2023-11-25T01:49:19;99846.06;;;10.32;61.79
38786;BME280;24535;45.508;12.252;2023-11-25T01:51:49;99842.84;;;10.29;62.12
38786;BME280;24535;45.508;12.252;2023-11-25T01:54:16;99851.00;;;10.26;61.71
38786;BME280;24535;45.508;12.252;2023-11-25T01:56:45;99856.59;;;10.21;62.13
38786;BME280;24535;45.508;12.252;2023-11-25T01:59:12;99865.56;;;10.19;62.05
38786;BME280;24535;45.508;12.252;2023-11-25T02:01:41;99871.06;;;10.15;62.05
38786;BME280;24535;45.508;12.252;2023-11-25T02:04:09;99866.78;;;10.14;61.99
38786;BME280;24535;45.508;12.252;2023-11-25T02:06:34;99866.91;;;10.13;61.91
38786;BME280;24535;45.508;12.252;2023-11-25T02:09:00;99878.88;;;10.17;62.10
38786;BME280;24535;45.508;12.252;2023-11-25T02:11:26;99872.16;;;10.13;61.92
38786;BME280;24535;45.508;12.252;2023-11-25T02:13:51;99869.41;;;10.03;62.10
38786;BME280;24535;45.508;12.252;2023-11-25T02:16:18;99872.78;;;10.05;62.04
38786;BME280;24535;45.508;12.252;2023-11-25T02:18:45;99873.84;;;10.03;61.74
38786;BME280;24535;45.508;12.252;2023-11-25T02:21:10;99868.94;;;9.98;61.77
38786;BME280;24535;45.508;12.252;2023-11-25T02:23:36;99856.16;;;9.94;62.17
38786;BME280;24535;45.508;12.252;2023-11-25T02:26:02;99866.19;;;9.88;61.94
38786;BME280;24535;45.508;12.252;2023-11-25T02:28:28;99863.81;;;9.85;61.81
38786;BME280;24535;45.508;12.252;2023-11-25T02:30:53;99861.53;;;9.81;62.39
38786;BME280;24535;45.508;12.252;2023-11-25T02:33:19;99861.75;;;9.78;62.04
38786;BME280;24535;45.508;12.252;2023-11-25T02:35:47;99858.31;;;9.77;61.80
38786;BME280;24535;45.508;12.252;2023-11-25T02:38:17;99847.06;;;9.75;62.06
38786;BME280;24535;45.508;12.252;2023-11-25T02:40:44;99855.16;;;9.72;62.44
38786;BME280;24535;45.508;12.252;2023-11-25T02:43:11;99858.66;;;9.73;61.90
38786;BME280;24535;45.508;12.252;2023-11-25T02:45:38;99854.47;;;9.70;61.76
38786;BME280;24535;45.508;12.252;2023-11-25T02:48:04;99855.78;;;9.64;61.47
38786;BME280;24535;45.508;12.252;2023-11-25T02:50:30;99858.66;;;9.61;61.15
38786;BME280;24535;45.508;12.252;2023-11-25T02:52:55;99856.38;;;9.57;61.63
38786;BME280;24535;45.508;12.252;2023-11-25T02:55:21;99856.75;;;9.52;61.45
38786;BME280;24535;45.508;12.252;2023-11-25T02:57:47;99854.69;;;9.45;61.54
38786;BME280;24535;45.508;12.252;2023-11-25T03:00:14;99860.16;;;9.41;61.26
38786;BME280;24535;45.508;12.252;2023-11-25T03:02:54;99848.44;;;9.34;61.46
38786;BME280;24535;45.508;12.252;2023-11-25T03:05:28;99850.47;;;9.31;61.26
38786;BME280;24535;45.508;12.252;2023-11-25T03:07:53;99860.63;;;9.24;61.44
38786;BME280;24535;45.508;12.252;2023-11-25T03:10:25;99858.00;;;9.24;61.17
38786;BME280;24535;45.508;12.252;2023-11-25T03:12:50;99862.66;;;9.21;61.56
38786;BME280;24535;45.508;12.252;2023-11-25T03:15:16;99864.66;;;9.17;61.36
38786;BME280;24535;45.508;12.252;2023-11-25T03:17:41;99876.44;;;9.11;61.35
38786;BME280;24535;45.508;12.252;2023-11-25T03:20:07;99876.91;;;9.05;61.47
38786;BME280;24535;45.508;12.252;2023-11-25T03:22:33;99881.69;;;9.00;60.75
38786;BME280;24535;45.508;12.252;2023-11-25T03:24:59;99879.41;;;8.96;60.97
38786;BME280;24535;45.508;12.252;2023-11-25T03:27:26;99876.25;;;8.90;61.37
38786;BME280;24535;45.508;12.252;2023-11-25T03:29:54;99875.63;;;8.87;61.13
38786;BME280;24535;45.508;12.252;2023-11-25T03:32:20;99866.44;;;8.81;61.05
38786;BME280;24535;45.508;12.252;2023-11-25T03:34:45;99870.38;;;8.76;61.36
38786;BME280;24535;45.508;12.252;2023-11-25T03:37:11;99871.75;;;8.69;61.30
38786;BME280;24535;45.508;12.252;2023-11-25T03:39:37;99868.38;;;8.66;61.14
38786;BME280;24535;45.508;12.252;2023-11-25T03:42:03;99872.94;;;8.64;60.90
38786;BME280;24535;45.508;12.252;2023-11-25T03:44:30;99872.19;;;8.62;61.36
38786;BME280;24535;45.508;12.252;2023-11-25T03:46:55;99868.03;;;8.60;61.22
38786;BME280;24535;45.508;12.252;2023-11-25T03:49:21;99857.53;;;8.60;61.77
38786;BME280;24535;45.508;12.252;2023-11-25T03:51:46;99854.06;;;8.59;61.59
38786;BME280;24535;45.508;12.252;2023-11-25T03:54:12;99850.81;;;8.56;60.85
38786;BME280;24535;45.508;12.252;2023-11-25T03:56:37;99852.81;;;8.52;60.93
38786;BME280;24535;45.508;12.252;2023-11-25T03:59:03;99846.63;;;8.53;61.44
38786;BME280;24535;45.508;12.252;2023-11-25T04:01:28;99855.44;;;8.52;61.14
38786;BME280;24535;45.508;12.252;2023-11-25T04:03:54;99868.44;;;8.54;61.67
38786;BME280;24535;45.508;12.252;2023-11-25T04:06:20;99865.94;;;8.52;61.01
38786;BME280;24535;45.508;12.252;2023-11-25T04:08:45;99872.25;;;8.50;61.06
38786;BME280;24535;45.508;12.252;2023-11-25T04:11:11;99869.53;;;8.51;61.23
38786;BME280;24535;45.508;12.252;2023-11-25T04:13:36;99861.53;;;8.53;61.61
38786;BME280;24535;45.508;12.252;2023-11-25T04:16:02;99859.41;;;8.58;62.06
38786;BME280;24535;45.508;12.252;2023-11-25T04:18:29;99873.28;;;8.60;61.07
38786;BME280;24535;45.508;12.252;2023-11-25T04:20:55;99875.97;;;8.58;61.64
38786;BME280;24535;45.508;12.252;2023-11-25T04:23:21;99881.69;;;8.52;61.05
38786;BME280;24535;45.508;12.252;2023-11-25T04:25:46;99878.84;;;8.55;60.89
38786;BME280;24535;45.508;12.252;2023-11-25T04:28:11;99882.19;;;8.57;61.72
38786;BME280;24535;45.508;12.252;2023-11-25T04:30:40;99886.13;;;8.52;60.71
38786;BME280;24535;45.508;12.252;2023-11-25T04:33:09;99899.44;;;8.49;60.80
38786;BME280;24535;45.508;12.252;2023-11-25T04:35:38;99890.75;;;8.48;61.21
38786;BME280;24535;45.508;12.252;2023-11-25T04:38:04;99888.81;;;8.50;61.01
38786;BME280;24535;45.508;12.252;2023-11-25T04:40:30;99895.16;;;8.48;60.58
38786;BME280;24535;45.508;12.252;2023-11-25T04:42:56;99899.78;;;8.44;61.03
38786;BME280;24535;45.508;12.252;2023-11-25T04:45:21;99907.75;;;8.42;61.12
38786;BME280;24535;45.508;12.252;2023-11-25T04:47:48;99911.25;;;8.43;60.82
38786;BME280;24535;45.508;12.252;2023-11-25T04:50:19;99911.94;;;8.45;61.03
38786;BME280;24535;45.508;12.252;2023-11-25T04:52:46;99922.44;;;8.45;60.40
38786;BME280;24535;45.508;12.252;2023-11-25T04:55:12;99920.66;;;8.46;60.62
38786;BME280;24535;45.508;12.252;2023-11-25T04:57:38;99924.13;;;8.46;60.10
38786;BME280;24535;45.508;12.252;2023-11-25T05:00:05;99929.47;;;8.45;60.45
38786;BME280;24535;45.508;12.252;2023-11-25T05:02:35;99930.31;;;8.45;59.89
38786;BME280;24535;45.508;12.252;2023-11-25T05:05:02;99940.94;;;8.44;60.23
38786;BME280;24535;45.508;12.252;2023-11-25T05:07:29;99931.28;;;8.44;60.47
38786;BME280;24535;45.508;12.252;2023-11-25T05:09:54;99930.00;;;8.50;60.18
38786;BME280;24535;45.508;12.252;2023-11-25T05:12:20;99931.78;;;8.49;59.87
38786;BME280;24535;45.508;12.252;2023-11-25T05:14:45;99926.75;;;8.46;59.47
38786;BME280;24535;45.508;12.252;2023-11-25T05:17:11;99932.94;;;8.45;59.04
38786;BME280;24535;45.508;12.252;2023-11-25T05:19:37;99933.28;;;8.40;59.58
38786;BME280;24535;45.508;12.252;2023-11-25T05:22:03;99933.28;;;8.40;58.45
38786;BME280;24535;45.508;12.252;2023-11-25T05:24:29;99933.16;;;8.42;58.22
38786;BME280;24535;45.508;12.252;2023-11-25T05:26:55;99939.66;;;8.49;58.31
38786;BME280;24535;45.508;12.252;2023-11-25T05:29:20;99952.56;;;8.52;57.39
38786;BME280;24535;45.508;12.252;2023-11-25T05:31:46;99949.72;;;8.55;57.75
38786;BME280;24535;45.508;12.252;2023-11-25T05:34:11;99939.84;;;8.59;56.98
38786;BME280;24535;45.508;12.252;2023-11-25T05:36:38;99949.19;;;8.63;56.30
38786;BME280;24535;45.508;12.252;2023-11-25T05:39:04;99960.41;;;8.65;56.03
38786;BME280;24535;45.508;12.252;2023-11-25T05:41:37;99963.97;;;8.64;56.35
38786;BME280;24535;45.508;12.252;2023-11-25T05:44:03;99971.75;;;8.65;56.11
38786;BME280;24535;45.508;12.252;2023-11-25T05:46:32;100000.81;;;8.62;56.38
38786;BME280;24535;45.508;12.252;2023-11-25T05:48:58;100001.78;;;8.61;56.01
38786;BME280;24535;45.508;12.252;2023-11-25T05:51:32;100006.41;;;8.58;54.93
38786;BME280;24535;45.508;12.252;2023-11-25T05:53:58;100029.84;;;8.48;55.68
38786;BME280;24535;45.508;12.252;2023-11-25T05:56:24;100046.63;;;8.46;55.73
38786;BME280;24535;45.508;12.252;2023-11-25T05:58:52;100053.88;;;8.42;56.00
38786;BME280;24535;45.508;12.252;2023-11-25T06:01:18;100052.94;;;8.43;55.79
38786;BME280;24535;45.508;12.252;2023-11-25T06:03:43;100046.75;;;8.44;55.55
38786;BME280;24535;45.508;12.252;2023-11-25T06:06:09;100047.47;;;8.46;56.40
38786;BME280;24535;45.508;12.252;2023-11-25T06:08:36;100044.75;;;8.48;55.73
38786;BME280;24535;45.508;12.252;2023-11-25T06:11:02;100041.06;;;8.50;55.95
38786;BME280;24535;45.508;12.252;2023-11-25T06:13:27;100043.81;;;8.49;55.37
38786;BME280;24535;45.508;12.252;2023-11-25T06:15:53;100056.94;;;8.49;56.13
38786;BME280;24535;45.508;12.252;2023-11-25T06:18:19;100064.38;;;8.42;55.34
38786;BME280;24535;45.508;12.252;2023-11-25T06:20:46;100072.75;;;8.34;56.33
38786;BME280;24535;45.508;12.252;2023-11-25T06:23:13;100084.50;;;8.29;56.48
38786;BME280;24535;45.508;12.252;2023-11-25T06:25:38;100088.06;;;8.28;56.70
38786;BME280;24535;45.508;12.252;2023-11-25T06:28:05;100106.75;;;8.23;56.14
38786;BME280;24535;45.508;12.252;2023-11-25T06:30:31;100097.50;;;8.17;56.44
38786;BME280;24535;45.508;12.252;2023-11-25T06:32:57;100121.94;;;8.18;56.28
38786;BME280;24535;45.508;12.252;2023-11-25T06:35:22;100137.81;;;8.16;57.13
38786;BME280;24535;45.508;12.252;2023-11-25T06:37:49;100128.13;;;8.17;56.45
38786;BME280;24535;45.508;12.252;2023-11-25T06:40:14;100138.00;;;8.13;56.39
38786;BME280;24535;45.508;12.252;2023-11-25T06:42:40;100152.91;;;8.13;56.07
38786;BME280;24535;45.508;12.252;2023-11-25T06:45:06;100172.84;;;8.15;56.39
38786;BME280;24535;45.508;12.252;2023-11-25T06:47:32;100189.31;;;8.17;55.68
38786;BME280;24535;45.508;12.252;2023-11-25T06:49:57;100197.94;;;8.20;55.58
38786;BME280;24535;45.508;12.252;2023-11-25T06:52:23;100198.91;;;8.18;55.76
38786;BME280;24535;45.508;12.252;2023-11-25T06:54:49;100203.19;;;8.20;55.22
38786;BME280;24535;45.508;12.252;2023-11-25T06:57:14;100214.34;;;8.23;54.40
38786;BME280;24535;45.508;12.252;2023-11-25T06:59:40;100221.25;;;8.24;54.90
38786;BME280;24535;45.508;12.252;2023-11-25T07:02:11;100217.47;;;8.28;54.19
38786;BME280;24535;45.508;12.252;2023-11-25T07:04:36;100226.72;;;8.34;54.56
38786;BME280;24535;45.508;12.252;2023-11-25T07:07:02;100235.19;;;8.39;53.62
38786;BME280;24535;45.508;12.252;2023-11-25T07:09:27;100231.50;;;8.41;54.00
38786;BME280;24535;45.508;12.252;2023-11-25T07:11:55;100242.66;;;8.45;54.04
38786;BME280;24535;45.508;12.252;2023-11-25T07:14:21;100246.75;;;8.49;54.58
38786;BME280;24535;45.508;12.252;2023-11-25T07:16:47;100240.56;;;8.50;54.81
38786;BME280;24535;45.508;12.252;2023-11-25T07:19:13;100250.53;;;8.58;54.74
38786;BME280;24535;45.508;12.252;2023-11-25T07:21:39;100247.91;;;8.58;54.57
38786;BME280;24535;45.508;12.252;2023-11-25T07:24:05;100256.25;;;8.64;54.76
38786;BME280;24535;45.508;12.252;2023-11-25T07:26:33;100263.41;;;8.75;54.29
38786;BME280;24535;45.508;12.252;2023-11-25T07:29:01;100271.50;;;8.85;54.40
38786;BME280;24535;45.508;12.252;2023-11-25T07:31:26;100274.03;;;8.99;54.37
38786;BME280;24535;45.508;12.252;2023-11-25T07:33:53;100264.59;;;9.09;53.99
38786;BME280;24535;45.508;12.252;2023-11-25T07:36:19;100272.47;;;9.22;54.02
38786;BME280;24535;45.508;12.252;2023-11-25T07:38:46;100271.94;;;9.30;53.48
38786;BME280;24535;45.508;12.252;2023-11-25T07:41:18;100277.38;;;9.39;52.68
38786;BME280;24535;45.508;12.252;2023-11-25T07:43:43;100269.81;;;9.48;53.55
38786;BME280;24535;45.508;12.252;2023-11-25T07:46:09;100277.41;;;9.52;53.10
38786;BME280;24535;45.508;12.252;2023-11-25T07:48:36;100270.53;;;9.62;52.92
38786;BME280;24535;45.508;12.252;2023-11-25T07:51:02;100280.09;;;9.63;52.53
38786;BME280;24535;45.508;12.252;2023-11-25T07:53:28;100272.94;;;9.65;52.02
38786;BME280;24535;45.508;12.252;2023-11-25T07:55:54;100263.47;;;9.63;51.87
38786;BME280;24535;45.508;12.252;2023-11-25T07:58:20;100259.06;;;9.63;51.95
38786;BME280;24535;45.508;12.252;2023-11-25T08:00:48;100277.25;;;9.66;52.00
38786;BME280;24535;45.508;12.252;2023-11-25T08:03:13;100274.63;;;9.66;51.79
38786;BME280;24535;45.508;12.252;2023-11-25T08:05:39;100277.88;;;9.70;51.72
38786;BME280;24535;45.508;12.252;2023-11-25T08:08:04;100282.94;;;9.73;51.98
38786;BME280;24535;45.508;12.252;2023-11-25T08:10:30;100283.56;;;9.77;51.62
38786;BME280;24535;45.508;12.252;2023-11-25T08:13:01;100291.00;;;9.83;51.90
38786;BME280;24535;45.508;12.252;2023-11-25T08:15:27;100284.91;;;9.82;51.61
38786;BME280;24535;45.508;12.252;2023-11-25T08:17:54;100291.75;;;9.85;51.00
38786;BME280;24535;45.508;12.252;2023-11-25T08:20:20;100302.97;;;9.87;51.57
38786;BME280;24535;45.508;12.252;2023-11-25T08:22:46;100293.09;;;9.90;51.56
38786;BME280;24535;45.508;12.252;2023-11-25T08:25:11;100294.97;;;10.01;51.85
38786;BME280;24535;45.508;12.252;2023-11-25T08:27:37;100298.81;;;10.08;51.74
38786;BME280;24535;45.508;12.252;2023-11-25T08:30:04;100297.84;;;10.22;52.23
38786;BME280;24535;45.508;12.252;2023-11-25T08:32:34;100296.00;;;10.35;51.73
38786;BME280;24535;45.508;12.252;2023-11-25T08:35:02;100302.41;;;10.44;50.35
38786;BME280;24535;45.508;12.252;2023-11-25T08:37:28;100306.75;;;10.56;50.94
38786;BME280;24535;45.508;12.252;2023-11-25T08:39:54;100306.69;;;10.69;50.61
38786;BME280;24535;45.508;12.252;2023-11-25T08:42:21;100315.25;;;10.84;51.11
38786;BME280;24535;45.508;12.252;2023-11-25T08:44:50;100319.59;;;10.96;50.91
38786;BME280;24535;45.508;12.252;2023-11-25T08:47:16;100321.44;;;11.07;50.19
38786;BME280;24535;45.508;12.252;2023-11-25T08:49:41;100335.50;;;11.19;49.90
38786;BME280;24535;45.508;12.252;2023-11-25T08:52:07;100345.09;;;11.31;50.03
38786;BME280;24535;45.508;12.252;2023-11-25T08:54:33;100345.09;;;11.42;49.71
38786;BME280;24535;45.508;12.252;2023-11-25T08:57:05;100347.75;;;11.53;49.51
38786;BME280;24535;45.508;12.252;2023-11-25T08:59:34;100357.47;;;11.64;49.76
38786;BME280;24535;45.508;12.252;2023-11-25T09:02:00;100365.28;;;11.77;49.90
38786;BME280;24535;45.508;12.252;2023-11-25T09:04:29;100364.50;;;11.87;50.30
38786;BME280;24535;45.508;12.252;2023-11-25T09:07:00;100364.59;;;11.97;49.85
38786;BME280;24535;45.508;12.252;2023-11-25T09:09:26;100370.94;;;12.06;48.77
38786;BME280;24535;45.508;12.252;2023-11-25T09:11:51;100372.97;;;12.13;48.26
38786;BME280;24535;45.508;12.252;2023-11-25T09:14:19;100369.88;;;12.20;48.83
38786;BME280;24535;45.508;12.252;2023-11-25T09:16:45;100374.41;;;12.29;48.88
38786;BME280;24535;45.508;12.252;2023-11-25T09:19:11;100367.53;;;12.37;48.14
38786;BME280;24535;45.508;12.252;2023-11-25T09:21:38;100362.47;;;12.46;48.16
38786;BME280;24535;45.508;12.252;2023-11-25T09:24:04;100365.94;;;12.57;47.37
38786;BME280;24535;45.508;12.252;2023-11-25T09:26:30;100364.47;;;12.65;47.64
38786;BME280;24535;45.508;12.252;2023-11-25T09:28:56;100378.75;;;12.73;46.84
38786;BME280;24535;45.508;12.252;2023-11-25T09:31:21;100367.78;;;12.78;46.99
38786;BME280;24535;45.508;12.252;2023-11-25T09:33:49;100381.25;;;12.75;44.27
38786;BME280;24535;45.508;12.252;2023-11-25T09:36:15;100382.09;;;12.75;45.45
38786;BME280;24535;45.508;12.252;2023-11-25T09:38:41;100386.88;;;12.81;44.09
38786;BME280;24535;45.508;12.252;2023-11-25T09:41:07;100386.88;;;12.81;44.62
38786;BME280;24535;45.508;12.252;2023-11-25T09:43:33;100394.91;;;12.80;42.81
38786;BME280;24535;45.508;12.252;2023-11-25T09:45:59;100396.34;;;12.84;43.18
38786;BME280;24535;45.508;12.252;2023-11-25T09:48:26;100408.25;;;12.90;44.06
38786;BME280;24535;45.508;12.252;2023-11-25T09:50:52;100404.84;;;12.99;43.67
38786;BME280;24535;45.508;12.252;2023-11-25T09:53:29;100406.59;;;13.09;42.53
38786;BME280;24535;45.508;12.252;2023-11-25T09:56:00;100401.38;;;13.19;44.81
38786;BME280;24535;45.508;12.252;2023-11-25T09:58:28;100403.56;;;13.25;43.68
38786;BME280;24535;45.508;12.252;2023-11-25T10:00:54;100404.59;;;13.34;43.80
38786;BME280;24535;45.508;12.252;2023-11-25T10:03:21;100403.38;;;13.38;44.58
38786;BME280;24535;45.508;12.252;2023-11-25T10:05:47;100402.00;;;13.44;43.17
38786;BME280;24535;45.508;12.252;2023-11-25T10:08:13;100399.69;;;13.50;42.36
38786;BME280;24535;45.508;12.252;2023-11-25T10:10:38;100395.28;;;13.60;42.37
38786;BME280;24535;45.508;12.252;2023-11-25T10:13:12;100397.53;;;13.65;41.18
38786;BME280;24535;45.508;12.252;2023-11-25T10:15:45;100408.31;;;13.73;42.06
38786;BME280;24535;45.508;12.252;2023-11-25T10:18:11;100409.47;;;13.80;41.54
38786;BME280;24535;45.508;12.252;2023-11-25T10:20:43;100403.75;;;13.85;41.13
38786;BME280;24535;45.508;12.252;2023-11-25T10:23:09;100394.47;;;13.91;42.19
38786;BME280;24535;45.508;12.252;2023-11-25T10:25:34;100402.69;;;13.97;41.97
38786;BME280;24535;45.508;12.252;2023-11-25T10:28:01;100394.66;;;13.99;42.44
38786;BME280;24535;45.508;12.252;2023-11-25T10:30:27;100389.91;;;14.02;41.79
38786;BME280;24535;45.508;12.252;2023-11-25T10:32:54;100387.97;;;14.04;42.08
38786;BME280;24535;45.508;12.252;2023-11-25T10:35:22;100386.72;;;14.08;40.64
38786;BME280;24535;45.508;12.252;2023-11-25T10:37:50;100384.66;;;14.12;41.59
38786;BME280;24535;45.508;12.252;2023-11-25T10:40:18;100380.06;;;14.14;41.00
38786;BME280;24535;45.508;12.252;2023-11-25T10:42:45;100392.19;;;14.17;39.94
38786;BME280;24535;45.508;12.252;2023-11-25T10:45:18;100377.00;;;14.19;39.68
38786;BME280;24535;45.508;12.252;2023-11-25T10:47:44;100369.63;;;14.22;40.64
38786;BME280;24535;45.508;12.252;2023-11-25T10:50:10;100374.66;;;14.25;40.67
38786;BME280;24535;45.508;12.252;2023-11-25T10:52:37;100376.34;;;14.26;40.95
38786;BME280;24535;45.508;12.252;2023-11-25T10:55:06;100375.47;;;14.26;40.65
38786;BME280;24535;45.508;12.252;2023-11-25T10:57:32;100364.88;;;14.26;40.69
38786;BME280;24535;45.508;12.252;2023-11-25T10:59:59;100372.72;;;14.27;40.07
38786;BME280;24535;45.508;12.252;2023-11-25T11:02:30;100369.91;;;14.29;39.88
38786;BME280;24535;45.508;12.252;2023-11-25T11:05:08;100368.09;;;14.29;37.20
38786;BME280;24535;45.508;12.252;2023-11-25T11:07:41;100361.53;;;14.24;39.50
38786;BME280;24535;45.508;12.252;2023-11-25T11:10:11;100355.25;;;14.25;40.17
38786;BME280;24535;45.508;12.252;2023-11-25T11:12:43;100359.88;;;14.23;39.62
38786;BME280;24535;45.508;12.252;2023-11-25T11:15:15;100358.19;;;14.22;39.03
38786;BME280;24535;45.508;12.252;2023-11-25T11:18:03;100353.84;;;14.21;38.59
38786;BME280;24535;45.508;12.252;2023-11-25T11:20:39;100361.69;;;14.22;39.72
38786;BME280;24535;45.508;12.252;2023-11-25T11:23:06;100360.72;;;14.23;38.98
38786;BME280;24535;45.508;12.252;2023-11-25T11:34:07;100345.34;;;14.17;39.55
38786;BME280;24535;45.508;12.252;2023-11-25T11:36:34;100351.47;;;14.18;39.22
38786;BME280;24535;45.508;12.252;2023-11-25T11:39:00;100345.50;;;14.16;38.63
38786;BME280;24535;45.508;12.252;2023-11-25T11:41:27;100350.94;;;14.14;39.00
38786;BME280;24535;45.508;12.252;2023-11-25T11:44:05;100352.72;;;14.14;37.22
38786;BME280;24535;45.508;12.252;2023-11-25T11:46:36;100349.13;;;14.15;38.02
38786;BME280;24535;45.508;12.252;2023-11-25T11:49:08;100357.06;;;14.15;37.75
38786;BME280;24535;45.508;12.252;2023-11-25T11:51:34;100358.00;;;14.14;38.96
38786;BME280;24535;45.508;12.252;2023-11-25T11:54:26;100357.31;;;14.12;36.30
38786;BME280;24535;45.508;12.252;2023-11-25T11:57:03;100348.81;;;14.08;38.43
38786;BME280;24535;45.508;12.252;2023-11-25T12:02:30;100354.25;;;14.06;37.94
38786;BME280;24535;45.508;12.252;2023-11-25T12:05:00;100354.50;;;14.03;37.93
38786;BME280;24535;45.508;12.252;2023-11-25T12:07:26;100354.38;;;14.05;36.83
38786;BME280;24535;45.508;12.252;2023-11-25T12:09:53;100358.81;;;14.04;36.84
38786;BME280;24535;45.508;12.252;2023-11-25T12:12:19;100349.47;;;14.00;37.31
38786;BME280;24535;45.508;12.252;2023-11-25T12:14:45;100353.69;;;14.03;37.45
38786;BME280;24535;45.508;12.252;2023-11-25T12:17:13;100355.34;;;14.04;37.86
38786;BME280;24535;45.508;12.252;2023-11-25T12:19:39;100355.59;;;14.01;37.78
38786;BME280;24535;45.508;12.252;2023-11-25T12:22:05;100361.31;;;13.96;36.50
38786;BME280;24535;45.508;12.252;2023-11-25T12:24:33;100349.31;;;13.92;35.54
38786;BME280;24535;45.508;12.252;2023-11-25T12:27:00;100352.94;;;13.91;35.25
38786;BME280;24535;45.508;12.252;2023-11-25T12:29:32;100359.47;;;13.87;35.78
38786;BME280;24535;45.508;12.252;2023-11-25T12:31:59;100355.00;;;13.88;37.08
38786;BME280;24535;45.508;12.252;2023-11-25T12:34:25;100355.00;;;13.88;35.95
38786;BME280;24535;45.508;12.252;2023-11-25T12:36:50;100350.13;;;13.83;35.72
38786;BME280;24535;45.508;12.252;2023-11-25T12:39:16;100350.94;;;13.83;36.24
38786;BME280;24535;45.508;12.252;2023-11-25T12:41:43;100356.25;;;13.83;35.96
38786;BME280;24535;45.508;12.252;2023-11-25T12:44:09;100361.53;;;13.83;35.52
38786;BME280;24535;45.508;12.252;2023-11-25T12:46:39;100365.16;;;13.82;33.90
38786;BME280;24535;45.508;12.252;2023-11-25T12:49:21;100346.63;;;13.82;35.77
38786;BME280;24535;45.508;12.252;2023-11-25T12:51:48;100355.25;;;13.84;36.19
38786;BME280;24535;45.508;12.252;2023-11-25T12:54:15;100364.03;;;13.85;36.90
38786;BME280;24535;45.508;12.252;2023-11-25T12:56:43;100349.41;;;13.81;34.75
38786;BME280;24535;45.508;12.252;2023-11-25T12:59:23;100349.28;;;13.82;35.35
38786;BME280;24535;45.508;12.252;2023-11-25T13:01:50;100359.47;;;13.87;34.70